createdAt,value
2018-11-28T01:42:22.266Z,15.57
2018-11-28T01:45:26.845Z,15.93
2018-11-28T01:48:31.355Z,16.70
2018-11-28T01:51:35.842Z,16.00
2018-11-28T01:54:40.408Z,15.67
2018-11-28T01:57:45.007Z,15.47
2018-11-28T02:00:49.542Z,14.83
2018-11-28T02:03:54.114Z,16.43
2018-11-28T02:06:58.646Z,16.83
2018-11-28T02:10:03.256Z,15.83
2018-11-28T02:13:07.863Z,16.00
2018-11-28T02:16:12.558Z,16.87
2018-11-28T02:19:17.091Z,15.83
2018-11-28T02:22:21.640Z,16.53
2018-11-28T02:25:26.240Z,16.10
2018-11-28T02:28:30.777Z,15.80
2018-11-28T02:31:35.290Z,16.60
2018-11-28T02:34:40.000Z,16.00
2018-11-28T02:37:44.614Z,16.17
2018-11-28T02:40:49.186Z,16.43
2018-11-28T02:43:53.700Z,16.23
2018-11-28T02:46:58.502Z,16.43
2018-11-28T02:50:03.182Z,15.80
2018-11-28T02:53:07.741Z,17.40
2018-11-28T02:56:12.253Z,15.93
2018-11-28T02:59:16.825Z,15.53
2018-11-28T03:02:21.353Z,16.10
2018-11-28T03:05:25.903Z,16.40
2018-11-28T03:08:30.549Z,16.77
2018-11-28T03:11:35.199Z,16.23
2018-11-28T03:14:39.774Z,16.30
2018-11-28T03:17:44.284Z,17.23
2018-11-28T03:20:48.921Z,16.80
2018-11-28T03:23:53.618Z,16.17
2018-11-28T03:26:58.160Z,16.97
2018-11-28T03:30:02.766Z,15.87
2018-11-28T03:33:07.481Z,16.77
2018-11-28T03:36:12.259Z,16.30
2018-11-28T03:39:16.879Z,17.47
2018-11-28T03:42:21.415Z,16.70
2018-11-28T03:45:26.003Z,16.53
2018-11-28T03:48:30.615Z,17.47
2018-11-28T03:51:35.140Z,16.13
2018-11-28T03:54:39.762Z,16.90
2018-11-28T03:57:46.171Z,17.50
2018-11-28T04:00:50.907Z,21.43
2018-11-28T04:03:55.521Z,20.30
2018-11-28T04:07:00.081Z,17.30
2018-11-28T04:10:08.073Z,18.23
2018-11-28T04:13:12.634Z,17.27
2018-11-28T04:16:17.186Z,16.83
2018-11-28T04:19:21.841Z,17.67
2018-11-28T04:22:26.426Z,16.37
2018-11-28T04:25:31.007Z,17.33
2018-11-28T04:28:35.627Z,17.37
2018-11-28T04:31:40.351Z,16.73
2018-11-28T04:34:44.946Z,17.70
2018-11-28T04:37:49.474Z,18.67
2018-11-28T04:40:54.068Z,18.40
2018-11-28T04:43:58.680Z,17.17
2018-11-28T04:47:03.220Z,16.93
2018-11-28T04:50:09.923Z,17.03
2018-11-28T04:53:14.386Z,17.50
2018-11-28T04:56:19.095Z,16.60
2018-11-28T04:59:23.741Z,17.33
2018-11-28T05:02:28.502Z,18.00
2018-11-28T05:05:33.019Z,17.17
2018-11-28T05:08:37.644Z,16.80
2018-11-28T05:11:42.346Z,17.60
2018-11-28T05:14:47.007Z,16.47
2018-11-28T05:17:57.418Z,18.40
2018-11-28T05:21:02.149Z,16.73
2018-11-28T05:24:06.808Z,17.73
2018-11-28T05:27:11.461Z,17.40
2018-11-28T05:30:19.330Z,18.43
2018-11-28T05:33:24.070Z,17.73
2018-11-28T05:36:28.614Z,17.37
2018-11-28T05:39:33.246Z,16.90
2018-11-28T05:42:37.924Z,16.90
2018-11-28T05:45:42.451Z,17.57
2018-11-28T05:48:47.021Z,17.50
2018-11-28T05:51:51.644Z,16.20
2018-11-28T05:54:56.404Z,17.57
2018-11-28T05:58:01.054Z,18.33
2018-11-28T06:01:05.640Z,16.20
2018-11-28T06:04:10.287Z,19.10
2018-11-28T06:07:21.640Z,17.77
2018-11-28T06:10:26.239Z,17.87
2018-11-28T06:13:30.905Z,17.20
2018-11-28T06:16:35.969Z,17.83
2018-11-28T06:19:40.608Z,18.40
2018-11-28T06:22:45.311Z,18.77
2018-11-28T06:25:50.004Z,18.40
2018-11-28T06:28:54.669Z,19.80
2018-11-28T06:31:59.241Z,18.07
2018-11-28T06:35:03.757Z,20.13
2018-11-28T06:38:08.367Z,22.10
2018-11-28T06:41:12.885Z,19.97
2018-11-28T06:44:17.641Z,19.93
2018-11-28T06:47:22.214Z,21.43
2018-11-28T06:50:26.884Z,23.00
2018-11-28T06:53:31.432Z,21.30
2018-11-28T06:56:36.012Z,20.67
2018-11-28T06:59:40.795Z,20.43
2018-11-28T07:02:45.562Z,22.17
2018-11-28T07:05:50.250Z,20.53
2018-11-28T07:08:54.979Z,19.47
2018-11-28T07:11:59.525Z,18.47
2018-11-28T07:15:04.322Z,19.23
2018-11-28T07:18:25.687Z,18.43
2018-11-28T07:21:30.415Z,19.13
2018-11-28T07:24:34.942Z,19.07
2018-11-28T07:27:44.823Z,18.63
2018-11-28T07:30:44.194Z,19.33
2018-11-28T07:33:48.861Z,19.37
2018-11-28T07:36:53.900Z,19.83
2018-11-28T07:39:58.529Z,19.70
2018-11-28T07:43:13.870Z,19.57
2018-11-28T07:46:18.436Z,19.23
2018-11-28T07:49:23.166Z,19.97
2018-11-28T07:52:27.767Z,19.07
2018-11-28T07:55:32.368Z,19.93
2018-11-28T07:58:36.919Z,19.83
2018-11-28T08:01:41.572Z,22.03
2018-11-28T08:04:46.123Z,19.70
2018-11-28T08:07:50.729Z,19.60
2018-11-28T08:10:55.322Z,20.53
2018-11-28T08:13:59.991Z,18.57
2018-11-28T08:17:04.699Z,19.50
2018-11-28T08:20:09.407Z,19.10
2018-11-28T08:23:13.982Z,20.87
2018-11-28T08:26:18.525Z,21.80
2018-11-28T08:29:23.100Z,21.63
2018-11-28T08:32:27.678Z,21.53
2018-11-28T08:35:32.211Z,22.20
2018-11-28T08:38:36.732Z,20.93
2018-11-28T08:41:41.362Z,20.60
2018-11-28T08:44:46.098Z,20.33
2018-11-28T08:47:52.530Z,21.13
2018-11-28T08:50:57.236Z,19.57
2018-11-28T08:54:01.796Z,20.57
2018-11-28T08:57:06.541Z,20.90
2018-11-28T09:00:16.903Z,21.23
2018-11-28T09:03:21.429Z,21.43
2018-11-28T09:06:26.008Z,22.03
2018-11-28T09:09:30.684Z,23.33
2018-11-28T09:12:35.333Z,21.97
2018-11-28T09:15:40.578Z,23.83
2018-11-28T09:18:47.793Z,23.97
2018-11-28T09:21:52.364Z,23.53
2018-11-28T09:24:56.905Z,24.93
2018-11-28T09:28:01.664Z,21.93
2018-11-28T09:31:06.249Z,23.03
2018-11-28T09:34:10.905Z,22.40
2018-11-28T09:37:15.466Z,22.23
2018-11-28T09:40:25.667Z,21.73
2018-11-28T09:43:30.298Z,21.33
2018-11-28T09:46:34.969Z,22.20
2018-11-28T09:49:39.487Z,20.53
2018-11-28T09:52:44.111Z,19.67
2018-11-28T09:55:48.582Z,20.90
2018-11-28T09:58:53.133Z,18.77
2018-11-28T10:01:57.777Z,19.93
2018-11-28T10:05:03.015Z,18.83
2018-11-28T10:08:07.029Z,17.17
2018-11-28T10:11:12.129Z,19.43
2018-11-28T10:14:16.661Z,17.73
2018-11-28T10:17:21.299Z,19.37
2018-11-28T10:20:25.793Z,17.70
2018-11-28T10:23:30.328Z,18.00
2018-11-28T10:26:34.899Z,18.77
2018-11-28T10:29:39.421Z,18.63
2018-11-28T10:32:44.033Z,16.83
2018-11-28T10:35:48.629Z,17.17
2018-11-28T10:38:53.194Z,17.20
2018-11-28T10:41:57.822Z,16.97
2018-11-28T10:45:02.349Z,17.83
2018-11-28T10:48:08.806Z,17.73
2018-11-28T10:51:13.387Z,18.37
2018-11-28T10:54:17.955Z,17.97
2018-11-28T10:57:22.467Z,18.73
2018-11-28T11:00:34.937Z,18.17
2018-11-28T11:03:44.890Z,17.23
2018-11-28T11:06:54.756Z,19.17
2018-11-28T11:10:04.676Z,17.13
2018-11-28T11:13:14.440Z,18.13
2018-11-28T11:16:24.288Z,18.33
2018-11-28T11:19:28.887Z,18.27
2018-11-28T11:22:33.857Z,19.20
2018-11-28T11:25:38.784Z,18.47
2018-11-28T11:28:43.471Z,18.23
2018-11-28T11:31:48.070Z,17.70
2018-11-28T11:34:52.701Z,18.73
2018-11-28T11:37:57.316Z,18.87
2018-11-28T11:41:01.813Z,18.53
2018-11-28T11:44:06.496Z,17.63
2018-11-28T11:47:11.128Z,19.17
2018-11-28T11:50:18.191Z,17.77
2018-11-28T11:53:22.850Z,18.73
2018-11-28T11:56:27.436Z,17.83
2018-11-28T11:59:32.029Z,18.50
2018-11-28T12:02:36.553Z,19.20
2018-11-28T12:05:46.518Z,18.03
2018-11-28T12:08:51.006Z,19.60
2018-11-28T12:11:55.529Z,18.17
2018-11-28T12:15:00.265Z,18.33
2018-11-28T12:18:05.008Z,18.10
2018-11-28T12:21:09.576Z,17.73
2018-11-28T12:24:14.205Z,17.97
2018-11-28T12:27:18.774Z,20.20
2018-11-28T12:30:23.510Z,18.73
2018-11-28T12:33:28.195Z,19.57
2018-11-28T12:36:32.746Z,19.30
2018-11-28T12:39:38.206Z,21.77
2018-11-28T12:42:45.534Z,18.80
2018-11-28T12:45:51.461Z,18.93
2018-11-28T12:48:56.110Z,19.07
2018-11-28T12:52:00.723Z,18.50
2018-11-28T12:55:05.519Z,19.80
2018-11-28T12:58:16.038Z,19.70
2018-11-28T13:01:20.568Z,18.43
2018-11-28T13:04:25.389Z,19.27
2018-11-28T13:07:30.054Z,18.10
2018-11-28T13:10:36.786Z,20.13
2018-11-28T13:13:41.357Z,20.13
2018-11-28T13:16:46.009Z,19.80
2018-11-28T13:19:50.678Z,17.77
2018-11-28T13:22:56.539Z,19.53
2018-11-28T13:26:01.101Z,20.03
2018-11-28T13:29:06.472Z,18.30
2018-11-28T13:32:11.286Z,20.07
2018-11-28T13:35:22.305Z,19.50
2018-11-28T13:38:26.943Z,20.10
2018-11-28T13:41:31.528Z,21.90
2018-11-28T13:44:36.197Z,21.30
2018-11-28T13:47:41.319Z,26.13
2018-11-28T13:50:46.537Z,22.57
2018-11-28T13:53:51.216Z,21.67
2018-11-28T13:56:58.720Z,20.53
2018-11-28T14:00:02.479Z,20.13
2018-11-28T14:03:07.326Z,19.20
2018-11-28T14:06:12.061Z,20.00
2018-11-28T14:09:17.618Z,18.63
2018-11-28T14:12:22.518Z,20.13
2018-11-28T14:15:27.287Z,21.27
2018-11-28T14:18:32.052Z,22.43
2018-11-28T14:21:36.829Z,22.87
2018-11-28T14:24:41.470Z,20.77
2018-11-28T14:27:46.326Z,20.13
2018-11-28T14:30:51.250Z,35.07
2018-11-28T14:33:56.039Z,20.03
2018-11-28T14:37:00.637Z,19.23
2018-11-28T14:40:08.913Z,18.80
2018-11-28T14:43:13.880Z,21.00
2018-11-28T14:46:18.510Z,19.70
2018-11-28T14:49:23.232Z,18.77
2018-11-28T14:52:27.822Z,19.77
2018-11-28T14:55:36.926Z,19.33
2018-11-28T14:58:41.748Z,20.20
2018-11-28T15:01:46.290Z,20.70
2018-11-28T15:04:51.328Z,20.27
2018-11-28T15:08:10.683Z,19.87
2018-11-28T15:11:16.030Z,21.47
2018-11-28T15:14:20.553Z,20.50
2018-11-28T15:17:25.391Z,19.97
2018-11-28T15:20:30.007Z,19.13
2018-11-28T15:23:34.630Z,19.67
2018-11-28T15:26:39.345Z,19.40
2018-11-28T15:29:44.100Z,19.10
2018-11-28T15:32:48.776Z,18.87
2018-11-28T15:35:53.553Z,19.23
2018-11-28T15:38:58.129Z,19.60
2018-11-28T15:42:02.768Z,18.83
2018-11-28T15:45:09.331Z,22.33
2018-11-28T15:48:14.343Z,21.10
2018-11-28T15:51:18.848Z,21.53
2018-11-28T15:54:23.418Z,20.07
2018-11-28T15:57:28.031Z,19.60
2018-11-28T16:00:32.797Z,19.77
2018-11-28T16:03:37.418Z,19.17
2018-11-28T16:06:41.998Z,20.23
2018-11-28T16:09:51.712Z,26.33
2018-11-28T16:12:56.689Z,21.57
2018-11-28T16:16:01.491Z,20.83
2018-11-28T16:19:06.571Z,20.37
2018-11-28T16:22:11.441Z,19.90
2018-11-28T16:25:16.291Z,21.77
2018-11-28T16:28:21.108Z,19.60
2018-11-28T16:31:25.956Z,21.20
2018-11-28T16:34:30.658Z,21.00
2018-11-28T16:37:35.304Z,19.93
2018-11-28T16:40:40.253Z,21.80
2018-11-28T16:43:44.853Z,21.13
2018-11-28T16:46:49.381Z,19.60
2018-11-28T16:49:53.965Z,19.63
2018-11-28T16:52:58.635Z,21.80
2018-11-28T16:56:03.352Z,20.80
2018-11-28T16:59:08.777Z,20.00
2018-11-28T17:02:13.505Z,20.73
2018-11-28T17:05:20.860Z,20.70
2018-11-28T17:08:25.415Z,19.63
2018-11-28T17:11:30.183Z,22.40
2018-11-28T17:14:36.405Z,22.23
2018-11-28T17:17:47.673Z,22.20
2018-11-28T17:20:52.230Z,22.67
2018-11-28T17:23:56.972Z,22.67
2018-11-28T17:27:01.816Z,24.67
2018-11-28T17:30:10.939Z,23.63
2018-11-28T17:33:15.552Z,23.97
2018-11-28T17:36:20.135Z,24.97
2018-11-28T17:39:24.708Z,22.63
2018-11-28T17:42:29.315Z,21.17
2018-11-28T17:45:34.091Z,23.37
2018-11-28T17:48:39.259Z,20.60
2018-11-28T17:51:43.818Z,23.43
2018-11-28T17:54:48.480Z,21.50
2018-11-28T17:57:53.064Z,23.20
2018-11-28T18:00:57.850Z,22.87
2018-11-28T18:04:02.382Z,26.80
2018-11-28T18:07:07.558Z,24.00
2018-11-28T18:10:17.272Z,28.30
2018-11-28T18:13:21.838Z,32.20
2018-11-28T18:16:29.500Z,32.83
2018-11-28T18:19:31.367Z,29.10
2018-11-28T18:22:35.878Z,27.73
2018-11-28T18:25:41.599Z,26.23
2018-11-28T18:28:46.153Z,26.80
2018-11-28T18:31:50.772Z,25.60
2018-11-28T18:34:55.290Z,24.83
2018-11-28T18:37:59.958Z,25.00
2018-11-28T18:41:08.032Z,27.53
2018-11-28T18:44:12.722Z,24.60
2018-11-28T18:47:17.294Z,25.73
2018-11-28T18:50:22.015Z,24.27
2018-11-28T18:53:26.598Z,24.03
2018-11-28T18:56:31.216Z,25.77
2018-11-28T18:59:35.753Z,23.80
2018-11-28T19:02:40.897Z,24.03
2018-11-28T19:05:45.442Z,24.77
2018-11-28T19:08:50.159Z,22.50
2018-11-28T19:11:54.807Z,24.17
2018-11-28T19:14:59.442Z,24.00
2018-11-28T19:18:04.130Z,26.37
2018-11-28T19:21:08.900Z,25.43
2018-11-28T19:24:13.511Z,25.77
2018-11-28T19:27:18.107Z,25.43
2018-11-28T19:30:36.018Z,23.47
2018-11-28T19:33:40.772Z,24.97
2018-11-28T19:36:45.426Z,26.07
2018-11-28T19:39:50.068Z,25.53
2018-11-28T19:42:54.802Z,25.37
2018-11-28T19:45:59.744Z,25.07
2018-11-28T19:49:04.377Z,25.57
2018-11-28T19:52:09.141Z,28.10
2018-11-28T19:55:13.895Z,28.20
2018-11-28T19:58:18.682Z,25.87
2018-11-28T20:01:23.385Z,26.57
2018-11-28T20:04:28.061Z,24.53
2018-11-28T20:07:32.774Z,24.20
2018-11-28T20:10:37.584Z,26.37
2018-11-28T20:13:43.711Z,25.10
2018-11-28T20:16:53.380Z,25.17
2018-11-28T20:19:59.270Z,25.80
2018-11-28T20:23:04.064Z,26.23
2018-11-28T20:26:08.819Z,26.83
2018-11-28T20:29:14.446Z,23.70
2018-11-28T20:32:19.133Z,25.83
2018-11-28T20:35:23.939Z,26.43
2018-11-28T20:38:33.068Z,26.37
2018-11-28T20:41:37.889Z,26.20
2018-11-28T20:44:42.609Z,24.83
2018-11-28T20:47:47.384Z,26.47
2018-11-28T20:50:53.001Z,27.17
2018-11-28T20:53:57.619Z,26.97
2018-11-28T20:57:02.231Z,25.40
2018-11-28T21:00:11.742Z,25.03
2018-11-28T21:03:16.366Z,25.77
2018-11-28T21:06:21.076Z,31.90
2018-11-28T21:09:25.965Z,28.83
2018-11-28T21:12:30.524Z,27.00
2018-11-28T21:15:35.059Z,27.37
2018-11-28T21:18:39.816Z,28.90
2018-11-28T21:21:44.515Z,28.07
2018-11-28T21:24:49.089Z,28.10
2018-11-28T21:27:53.750Z,29.17
2018-11-28T21:30:58.486Z,31.23
2018-11-28T21:34:03.152Z,33.00
2018-11-28T21:37:07.745Z,29.43
2018-11-28T21:40:13.050Z,28.50
2018-11-28T21:43:17.612Z,29.70
2018-11-28T21:46:22.246Z,29.40
2018-11-28T21:49:28.376Z,27.07
2018-11-28T21:52:33.076Z,27.43
2018-11-28T21:55:37.685Z,27.50
2018-11-28T21:58:42.276Z,29.03
2018-11-28T22:01:46.903Z,27.47
2018-11-28T22:04:51.552Z,28.43
2018-11-28T22:07:56.145Z,29.47
2018-11-28T22:11:00.695Z,27.57
2018-11-28T22:14:06.213Z,27.80
2018-11-28T22:17:10.660Z,26.77
2018-11-28T22:20:15.955Z,27.13
2018-11-28T22:23:20.461Z,27.60
2018-11-28T22:26:24.999Z,26.00
2018-11-28T22:29:29.717Z,27.13
2018-11-28T22:32:34.442Z,26.27
2018-11-28T22:35:39.175Z,27.03
2018-11-28T22:38:43.928Z,27.13
2018-11-28T22:41:48.610Z,27.23
2018-11-28T22:44:53.178Z,28.90
2018-11-28T22:47:57.694Z,28.67
2018-11-28T22:51:02.238Z,26.67
2018-11-28T22:54:06.861Z,27.57
2018-11-28T22:57:11.448Z,26.60
2018-11-28T23:00:29.140Z,27.67
2018-11-28T23:03:33.703Z,28.43
2018-11-28T23:06:38.305Z,26.53
2018-11-28T23:09:42.906Z,26.03
2018-11-28T23:12:47.502Z,26.33
2018-11-28T23:15:52.022Z,25.87
2018-11-28T23:18:57.431Z,26.87
2018-11-28T23:22:01.997Z,25.07
2018-11-28T23:25:10.724Z,26.67
2018-11-28T23:28:15.457Z,28.03
2018-11-28T23:31:19.972Z,25.83
2018-11-28T23:34:24.589Z,26.97
2018-11-28T23:37:29.198Z,26.60
2018-11-28T23:40:33.844Z,27.53
2018-11-28T23:43:38.539Z,25.63
2018-11-28T23:46:43.231Z,25.43
2018-11-28T23:49:47.803Z,25.97
2018-11-28T23:52:53.863Z,26.13
2018-11-28T23:55:58.444Z,26.93
2018-11-28T23:59:03.106Z,27.50
